createdAt,value
2019-01-15T00:02:23.114Z,71.95
2019-01-15T00:05:11.994Z,71.98
2019-01-15T00:08:00.786Z,71.82
2019-01-15T00:10:49.598Z,71.31
2019-01-15T00:13:38.380Z,71.86
2019-01-15T00:16:27.205Z,72.23
2019-01-15T00:19:15.995Z,71.63
2019-01-15T00:22:05.093Z,72.09
2019-01-15T00:24:34.535Z,71.37
2019-01-15T00:27:16.455Z,71.59
2019-01-15T00:30:24.565Z,71.08
2019-01-15T00:33:13.382Z,71.23
2019-01-15T00:36:02.169Z,71.16
2019-01-15T00:38:50.983Z,70.92
2019-01-15T00:41:39.779Z,71.21
2019-01-15T00:44:28.585Z,71.10
2019-01-15T00:47:17.403Z,70.99
2019-01-15T00:50:27.117Z,71.43
2019-01-15T00:53:15.929Z,71.61
2019-01-15T00:56:04.720Z,71.46
2019-01-15T00:58:53.534Z,71.15
2019-01-15T01:01:42.362Z,71.49
2019-01-15T01:04:31.172Z,71.28
2019-01-15T01:07:19.976Z,71.26
2019-01-15T01:10:29.730Z,71.17
2019-01-15T01:13:18.520Z,71.37
2019-01-15T01:16:07.396Z,71.01
2019-01-15T01:19:15.277Z,71.73
2019-01-15T01:22:04.088Z,72.70
2019-01-15T01:24:52.875Z,71.92
2019-01-15T01:27:34.450Z,71.85
2019-01-15T01:30:23.687Z,72.65
2019-01-15T01:33:12.497Z,72.81
2019-01-15T01:36:01.298Z,73.18
2019-01-15T01:38:50.101Z,72.80
2019-01-15T01:41:38.911Z,72.43
2019-01-15T01:44:27.711Z,72.53
2019-01-15T01:47:16.526Z,72.71
2019-01-15T01:50:27.584Z,71.64
2019-01-15T01:53:16.740Z,71.33
2019-01-15T01:56:05.529Z,71.94
2019-01-15T01:58:54.338Z,71.29
2019-01-15T02:01:43.141Z,71.47
2019-01-15T02:04:31.951Z,70.80
2019-01-15T02:07:20.742Z,71.65
2019-01-15T02:10:28.900Z,70.91
2019-01-15T02:13:17.694Z,70.23
2019-01-15T02:16:06.522Z,69.96
2019-01-15T02:18:55.319Z,70.60
2019-01-15T02:21:44.144Z,70.55
2019-01-15T02:28:01.370Z,71.74
2019-01-15T02:30:50.165Z,71.22
2019-01-15T02:33:38.985Z,71.23
2019-01-15T02:36:27.788Z,70.89
2019-01-15T02:39:16.617Z,71.24
2019-01-15T02:42:05.480Z,71.04
2019-01-15T02:44:54.302Z,71.64
2019-01-15T02:47:43.124Z,72.35
2019-01-15T02:50:31.918Z,72.39
2019-01-15T02:53:20.740Z,72.19
2019-01-15T02:56:09.577Z,72.06
2019-01-15T02:58:58.364Z,72.03
2019-01-15T03:01:47.179Z,72.78
2019-01-15T03:04:36.058Z,72.66
2019-01-15T03:07:24.875Z,72.89
2019-01-15T03:10:34.606Z,72.90
2019-01-15T03:13:23.432Z,72.73
2019-01-15T03:16:12.516Z,73.61
2019-01-15T03:19:01.342Z,73.30
2019-01-15T03:21:50.160Z,72.90
2019-01-15T03:24:38.982Z,73.81
2019-01-15T03:27:27.780Z,74.50
2019-01-15T03:30:13.796Z,74.10
2019-01-15T03:33:02.650Z,74.54
2019-01-15T03:35:51.495Z,74.61
2019-01-15T03:38:40.295Z,74.33
2019-01-15T03:41:29.110Z,74.76
2019-01-15T03:44:17.976Z,74.84
2019-01-15T03:47:06.818Z,75.56
2019-01-15T03:49:55.630Z,75.51
2019-01-15T03:52:44.449Z,75.75
2019-01-15T03:55:33.236Z,75.07
2019-01-15T03:58:22.051Z,75.18
2019-01-15T04:01:10.907Z,75.62
2019-01-15T04:03:59.727Z,74.88
2019-01-15T04:06:48.844Z,75.36
2019-01-15T04:12:47.021Z,76.52
2019-01-15T04:15:35.885Z,74.95
2019-01-15T04:18:24.708Z,74.64
2019-01-15T04:21:13.776Z,75.52
2019-01-15T04:24:02.579Z,75.31
2019-01-15T04:26:51.370Z,75.35
2019-01-15T04:29:40.172Z,74.70
2019-01-15T04:32:22.092Z,74.59
2019-01-15T04:37:59.562Z,74.16
2019-01-15T04:40:48.365Z,74.43
2019-01-15T04:43:37.250Z,73.74
2019-01-15T04:46:26.065Z,73.28
2019-01-15T04:49:14.886Z,73.30
2019-01-15T04:52:03.785Z,73.87
2019-01-15T04:54:52.583Z,73.87
2019-01-15T04:57:41.393Z,73.65
2019-01-15T05:00:30.269Z,73.28
2019-01-15T05:03:19.144Z,72.87
2019-01-15T05:06:08.036Z,73.00
2019-01-15T05:08:56.837Z,73.51
2019-01-15T05:11:45.612Z,73.96
2019-01-15T05:14:34.420Z,73.86
2019-01-15T05:17:23.208Z,73.76
2019-01-15T05:20:32.926Z,74.24
2019-01-15T05:23:21.716Z,74.17
2019-01-15T05:26:10.523Z,74.56
2019-01-15T05:28:59.329Z,74.26
2019-01-15T05:31:48.152Z,75.27
2019-01-15T05:34:36.953Z,75.24
2019-01-15T05:37:25.735Z,75.49
2019-01-15T05:40:35.484Z,75.09
2019-01-15T05:43:24.282Z,74.85
2019-01-15T05:46:13.083Z,74.82
2019-01-15T05:49:01.881Z,74.37
2019-01-15T05:51:50.714Z,75.29
2019-01-15T05:54:39.531Z,74.93
2019-01-15T05:57:28.315Z,75.41
2019-01-15T06:00:17.677Z,75.66
2019-01-15T06:03:06.462Z,75.32
2019-01-15T06:05:55.278Z,74.69
2019-01-15T06:08:44.083Z,74.18
2019-01-15T06:11:32.895Z,74.04
2019-01-15T06:14:21.681Z,74.42
2019-01-15T06:17:10.511Z,74.76
2019-01-15T06:19:59.307Z,74.48
2019-01-15T06:22:48.199Z,75.01
2019-01-15T06:25:36.985Z,74.96
2019-01-15T06:31:18.581Z,75.37
2019-01-15T06:34:07.399Z,75.07
2019-01-15T06:36:56.200Z,76.15
2019-01-15T06:39:45.007Z,76.01
2019-01-15T06:42:33.815Z,77.17
2019-01-15T06:45:43.512Z,77.23
2019-01-15T06:48:32.329Z,76.94
2019-01-15T06:51:21.140Z,77.30
2019-01-15T06:54:09.945Z,79.57
2019-01-15T06:56:58.735Z,79.74
2019-01-15T06:59:47.543Z,80.23
2019-01-15T07:02:36.332Z,79.90
2019-01-15T07:05:25.138Z,80.09
2019-01-15T07:08:13.945Z,80.13
2019-01-15T07:11:02.763Z,80.26
2019-01-15T07:13:57.046Z,80.29
2019-01-15T07:19:41.273Z,79.97
2019-01-15T07:22:30.053Z,78.96
2019-01-15T07:25:38.193Z,79.00
2019-01-15T07:28:26.983Z,78.63
2019-01-15T07:31:08.544Z,78.58
2019-01-15T07:33:57.339Z,79.12
2019-01-15T07:36:46.460Z,78.47
2019-01-15T07:39:35.261Z,78.53
2019-01-15T07:42:24.082Z,78.38
2019-01-15T07:48:28.672Z,78.29
2019-01-15T07:51:17.467Z,78.27
2019-01-15T07:54:06.263Z,78.14
2019-01-15T07:56:55.052Z,78.87
2019-01-15T07:59:43.941Z,79.23
2019-01-15T08:02:32.729Z,78.43
2019-01-15T08:05:42.447Z,78.46
2019-01-15T08:08:31.219Z,78.81
2019-01-15T08:11:20.027Z,79.09
2019-01-15T08:14:12.095Z,79.79
2019-01-15T08:16:59.416Z,80.07
2019-01-15T08:19:48.226Z,80.40
2019-01-15T08:22:37.011Z,79.79
2019-01-15T08:25:25.843Z,79.57
2019-01-15T08:28:14.664Z,79.78
2019-01-15T08:30:56.123Z,80.50
2019-01-15T08:33:44.919Z,80.84
2019-01-15T08:36:54.285Z,81.14
2019-01-15T08:39:43.081Z,81.12
2019-01-15T08:42:31.885Z,81.71
2019-01-15T08:45:20.752Z,81.55
2019-01-15T08:57:00.535Z,82.04
2019-01-15T08:59:49.324Z,82.01
2019-01-15T09:02:38.134Z,81.85
2019-01-15T09:05:26.928Z,81.91
2019-01-15T09:08:15.740Z,82.35
2019-01-15T09:11:23.717Z,82.49
2019-01-15T09:14:12.507Z,83.24
2019-01-15T09:17:01.327Z,83.10
2019-01-15T09:19:50.115Z,83.08
2019-01-15T09:22:38.986Z,82.74
2019-01-15T09:25:27.777Z,82.09
2019-01-15T09:28:16.593Z,81.85
2019-01-15T09:30:58.457Z,82.39
2019-01-15T09:33:47.242Z,81.76
2019-01-15T09:36:36.067Z,81.05
2019-01-15T09:39:24.842Z,81.43
2019-01-15T09:45:30.351Z,81.67
2019-01-15T09:51:28.562Z,81.22
2019-01-15T09:54:17.617Z,80.82
2019-01-15T09:57:06.423Z,80.48
2019-01-15T09:59:55.229Z,80.08
2019-01-15T10:02:44.066Z,80.08
2019-01-15T10:05:32.834Z,79.83
2019-01-15T10:08:21.651Z,80.07
2019-01-15T10:11:10.511Z,79.77
2019-01-15T10:13:59.337Z,79.87
2019-01-15T10:16:48.134Z,78.93
2019-01-15T10:19:36.971Z,79.12
2019-01-15T10:22:25.841Z,78.16
2019-01-15T10:25:33.908Z,78.83
2019-01-15T10:28:22.771Z,78.18
2019-01-15T10:31:06.227Z,77.27
2019-01-15T10:34:15.926Z,76.74
2019-01-15T10:37:03.762Z,76.83
2019-01-15T10:39:52.544Z,76.78
2019-01-15T10:42:41.375Z,76.88
2019-01-15T10:45:30.256Z,77.06
2019-01-15T10:48:19.069Z,77.73
2019-01-15T10:51:07.856Z,77.54
2019-01-15T10:53:56.663Z,77.03
2019-01-15T10:56:45.469Z,76.70
2019-01-15T10:59:34.284Z,76.59
2019-01-15T11:02:23.112Z,77.28
2019-01-15T11:05:12.527Z,76.61
2019-01-15T11:08:01.330Z,76.56
2019-01-15T11:10:50.122Z,77.50
2019-01-15T11:13:38.918Z,76.70
2019-01-15T11:16:27.712Z,76.31
2019-01-15T11:19:16.530Z,76.72
2019-01-15T11:22:05.338Z,75.50
2019-01-15T11:24:54.206Z,75.42
2019-01-15T11:27:43.010Z,74.52
2019-01-15T11:30:31.809Z,74.40
2019-01-15T11:33:13.430Z,74.64
2019-01-15T11:36:02.214Z,73.84
2019-01-15T11:38:51.013Z,74.16
2019-01-15T11:41:39.870Z,73.77
2019-01-15T11:44:28.746Z,74.71
2019-01-15T11:47:17.534Z,74.19
2019-01-15T11:50:27.264Z,74.39
2019-01-15T11:53:16.042Z,74.56
2019-01-15T11:56:05.042Z,75.27
2019-01-15T12:05:18.259Z,77.24
2019-01-15T12:08:26.147Z,77.65
2019-01-15T12:11:33.989Z,77.43
2019-01-15T12:14:41.853Z,78.04
2019-01-15T12:17:49.673Z,78.08
2019-01-15T12:26:35.078Z,78.01
2019-01-15T12:29:42.910Z,77.79
2019-01-15T12:32:26.296Z,77.28
2019-01-15T12:35:34.307Z,77.12
2019-01-15T12:38:42.191Z,77.48
2019-01-15T12:41:50.141Z,77.92
2019-01-15T12:44:58.010Z,77.09
2019-01-15T12:48:05.832Z,77.42
2019-01-15T12:51:13.653Z,77.34
2019-01-15T12:54:21.497Z,77.90
2019-01-15T12:57:29.386Z,77.31
2019-01-15T13:00:37.288Z,77.48
2019-01-15T13:03:45.107Z,76.57
2019-01-15T13:06:52.958Z,76.64
2019-01-15T13:09:41.524Z,76.86
2019-01-15T13:12:30.768Z,76.36
2019-01-15T13:15:38.636Z,75.86
2019-01-15T13:18:46.456Z,76.34
2019-01-15T13:21:54.537Z,75.86
2019-01-15T13:24:44.982Z,75.14
2019-01-15T13:27:52.812Z,76.15
2019-01-15T13:31:00.694Z,75.28
2019-01-15T13:33:45.139Z,75.43
2019-01-15T13:40:02.429Z,74.41
2019-01-15T13:42:50.991Z,74.51
2019-01-15T13:45:41.921Z,74.91
2019-01-15T13:48:31.807Z,74.96
2019-01-15T13:51:39.626Z,75.04
2019-01-15T13:57:24.058Z,75.04
2019-01-15T14:00:52.805Z,74.89
2019-01-15T14:04:00.627Z,74.77
2019-01-15T14:10:04.154Z,75.75
2019-01-15T14:13:11.999Z,75.46
2019-01-15T14:16:19.818Z,74.87
2019-01-15T14:19:27.713Z,75.83
2019-01-15T14:25:44.927Z,75.98
2019-01-15T14:28:33.410Z,77.36
2019-01-15T14:34:33.513Z,76.68
2019-01-15T14:37:41.337Z,76.51
2019-01-15T14:40:49.176Z,76.21
2019-01-15T14:43:57.022Z,76.12
2019-01-15T14:47:04.858Z,75.52
2019-01-15T14:50:12.675Z,76.26
2019-01-15T14:56:19.802Z,75.98
2019-01-15T14:59:27.615Z,76.59
2019-01-15T15:02:37.071Z,76.22
2019-01-15T15:05:44.898Z,76.09
2019-01-15T15:08:52.725Z,77.29
2019-01-15T15:15:09.976Z,77.87
2019-01-15T15:21:27.197Z,77.67
2019-01-15T15:24:15.928Z,78.02
2019-01-15T15:27:24.030Z,77.94
2019-01-15T15:30:52.785Z,77.91
2019-01-15T15:37:09.935Z,78.16
2019-01-15T15:40:17.862Z,78.58
2019-01-15T15:43:25.776Z,78.86
2019-01-15T15:46:33.610Z,79.51
2019-01-15T15:49:41.453Z,78.92
2019-01-15T15:52:49.282Z,78.95
2019-01-15T15:55:57.168Z,78.74
2019-01-15T16:02:14.347Z,78.75
2019-01-15T16:05:22.176Z,79.25
2019-01-15T16:08:29.994Z,79.32
2019-01-15T16:11:37.846Z,79.43
2019-01-15T16:14:28.272Z,79.17
2019-01-15T16:17:36.107Z,79.28
2019-01-15T16:20:26.538Z,79.34
2019-01-15T16:23:34.371Z,79.10
2019-01-15T16:26:42.273Z,79.34
2019-01-15T16:29:50.104Z,79.22
2019-01-15T16:32:57.919Z,79.90
2019-01-15T16:35:58.732Z,80.61
2019-01-15T16:39:06.546Z,80.48
2019-01-15T16:48:09.672Z,81.16
2019-01-15T16:57:22.622Z,81.54
2019-01-15T17:00:51.345Z,81.57
2019-01-15T17:03:59.170Z,81.64
2019-01-15T17:07:07.016Z,82.17
2019-01-15T17:10:14.849Z,81.71
2019-01-15T17:13:22.661Z,82.40
2019-01-15T17:16:33.845Z,82.33
2019-01-15T17:19:40.049Z,83.16
2019-01-15T17:25:43.531Z,82.69
2019-01-15T17:28:51.341Z,82.76
2019-01-15T17:31:59.196Z,81.74
2019-01-15T17:34:42.146Z,82.13
2019-01-15T17:43:55.220Z,82.08
2019-01-15T17:47:03.068Z,82.09
2019-01-15T17:50:10.914Z,81.48
2019-01-15T17:53:18.772Z,81.73
2019-01-15T17:56:26.638Z,81.64
2019-01-15T17:59:34.463Z,81.73
2019-01-15T18:02:42.304Z,82.82
2019-01-15T18:05:50.122Z,82.52
2019-01-15T18:11:53.716Z,81.52
2019-01-15T18:15:01.830Z,81.81
2019-01-15T18:18:09.643Z,81.74
2019-01-15T18:21:17.466Z,82.07
2019-01-15T18:24:25.347Z,82.10
2019-01-15T18:27:33.365Z,82.38
2019-01-15T18:30:41.417Z,82.54
2019-01-15T18:33:49.504Z,82.50
2019-01-15T18:43:01.820Z,82.28
2019-01-15T18:46:09.987Z,81.21
2019-01-15T18:49:18.134Z,82.02
2019-01-15T18:55:35.973Z,81.54
2019-01-15T18:58:44.326Z,81.14
2019-01-15T19:08:02.996Z,80.65
2019-01-15T19:11:11.330Z,81.18
2019-01-15T19:14:19.651Z,81.00
2019-01-15T19:17:03.691Z,81.24
2019-01-15T19:29:19.682Z,80.43
2019-01-15T19:32:22.380Z,80.62
2019-01-15T19:42:02.177Z,80.91
2019-01-15T19:48:20.805Z,80.25
2019-01-15T19:54:39.334Z,80.45
2019-01-15T20:00:59.403Z,81.37
2019-01-15T20:04:08.233Z,80.64
2019-01-15T20:07:17.035Z,81.12
2019-01-15T20:10:46.274Z,81.59
2019-01-15T20:17:18.042Z,81.13
2019-01-15T20:20:40.465Z,82.29
2019-01-15T20:24:08.442Z,82.13
2019-01-15T20:27:17.406Z,82.35
2019-01-15T20:30:46.726Z,83.03
2019-01-15T20:33:48.240Z,82.63
2019-01-15T20:37:16.544Z,82.69
2019-01-15T20:40:46.005Z,82.94
2019-01-15T20:43:56.340Z,83.10
2019-01-15T20:47:05.210Z,83.44
2019-01-15T20:50:15.567Z,83.50
2019-01-15T20:53:25.789Z,83.95
2019-01-15T21:03:18.768Z,83.94
2019-01-15T21:06:46.720Z,83.97
2019-01-15T21:10:06.980Z,83.43
2019-01-15T21:12:59.045Z,82.86
2019-01-15T21:16:07.785Z,82.83
2019-01-15T21:19:16.350Z,84.17
2019-01-15T21:22:24.983Z,83.25
2019-01-15T21:25:33.309Z,83.09
2019-01-15T21:28:41.714Z,83.23
2019-01-15T21:34:42.407Z,83.35
2019-01-15T21:46:54.806Z,82.95
2019-01-15T21:53:12.153Z,82.81
2019-01-15T21:56:19.975Z,82.75
2019-01-15T21:59:27.845Z,82.32
2019-01-15T22:05:45.049Z,82.08
2019-01-15T22:08:52.867Z,81.29
2019-01-15T22:12:00.701Z,81.09
2019-01-15T22:14:46.541Z,81.65
2019-01-15T22:21:03.801Z,82.63
2019-01-15T22:24:11.590Z,81.92
2019-01-15T22:27:19.427Z,81.19
2019-01-15T22:30:48.159Z,80.64
2019-01-15T22:36:51.707Z,81.79
2019-01-15T22:39:59.598Z,81.39
2019-01-15T22:43:07.403Z,82.05
2019-01-15T22:46:15.240Z,81.79
2019-01-15T22:55:31.404Z,82.03
2019-01-15T22:58:39.231Z,82.47
2019-01-15T23:05:07.010Z,81.90
2019-01-15T23:11:13.838Z,82.06
2019-01-15T23:17:23.558Z,81.69
2019-01-15T23:20:31.390Z,81.29
2019-01-15T23:23:39.238Z,81.86
2019-01-15T23:26:47.057Z,81.37
2019-01-15T23:29:54.885Z,80.58
2019-01-15T23:33:02.714Z,81.09
2019-01-15T23:36:10.795Z,80.82
2019-01-15T23:39:18.605Z,81.05
2019-01-15T23:42:26.433Z,81.11
2019-01-15T23:48:33.184Z,80.55
2019-01-15T23:51:41.013Z,80.60
2019-01-15T23:57:58.225Z,80.22
